Cincinnati, OH

9:10 AM EDT on March 27, 2017 (GMT -0400)
Norwood | | Change Station
Active Advisory: Special Statement

Elev 620 ft 39.15 °N, 84.45 °W | Updated 20 seconds ago

Fog
Fog
52.3 °F
Feels Like 52.3 °F
N
1.0
Wind Variable Wind from NW

Today
High -- | Low -- °F
--% Chance of Precip.
Yesterday
High -- | Low -- °F
Precip. -- in
Pressure 30.02 in
Visibility 0.2 miles
Clouds
Dew Point 51 °F
Humidity 96%
Rainfall 0.00 in
Snow Depth Not available.
7:29 AM 7:56 PM
Waning Crescent, 0% visible
METAR KLUK 271253Z 00000KT 1/4SM R21L/1800V3000FT FG VV002 08/08 A3002 RMK AO2 SLP165 T00780078
Pressure 30.02 in
Visibility 0.2 miles
Clouds
Dew Point 51 °F
Humidity 96%
Rainfall 0.00 in
Snow Depth Not available.
7:29 AM 7:56 PM
Waning Crescent, 0% visible
METAR KLUK 271253Z 00000KT 1/4SM R21L/1800V3000FT FG VV002 08/08 A3002 RMK AO2 SLP165 T00780078

Get Your Daily Forecast Email!

Thanks for signing up!

Be on the lookout for a verification email in your inbox.

You'll start receiving severe weather alerts in your inbox..

×

10-Day Weather Forecast

Almanac

Astronomy

Mar. 27, 2017 Rise Set
Actual Time
Civil Twilight
Nautical Twilight
Astronomical Twilight
Moon
Length of Visible Light
Length of Day
Tomorrow will be .
, % of the Moon is Illuminated

Today's Extremes

State Highs State Lows

Community

WunderPhotos

Upload Photos

1,962,540 photos uploaded!

WunderBlog® & News

Nearby

Air Quality

  Air Quality AQ Index Pollutant
Not available.

Snow Depth

Station Depth Elevation

Earthquake Activity

City Distance Mag. Time & Date
Minimum magnitude displayed is 2.5.

Earthquake Activity

City Distance Mag. Time & Date
Minimum magnitude displayed is 2.5.

Coastal Water Temperatures

Place Temperature

Stations

Nearby Weather Stations

Station Location Temp. Windchill Dew Point Humidity Wind Precip. Elev Updated Type
                   

Watches & Warnings

Special Statement
Issued: 7:40 AM EDT Mar. 27, 2017 – National Weather Service

... Patchy dense fog possible early this morning...

Patchy dense fog has developed this morning, restricting
visibilities in places.

Motorists should use extra caution. Slow down, use low-beam
headlights, and leave plenty of distance ahead of you as objects
on and near roadways will be seen only at close range due to low
visibilities.


740 am EDT Mon Mar 27 2017

... Patchy dense fog possible early this morning...

Patchy dense fog has developed this morning, restricting
visibilities in places.

Motorists should use extra caution. Slow down, use low-beam
headlights, and leave plenty of distance ahead of you as objects
on and near roadways will be seen only at close range due to low
visibilities.